sensor_id;sensor_type;location;lat;lon;timestamp;temperature;humidity
8664;DHT22;4369;47.842;13.096;2024-01-11T00:02:08;-5.10;99.90
8664;DHT22;4369;47.842;13.096;2024-01-11T00:04:36;-5.10;99.90
8664;DHT22;4369;47.842;13.096;2024-01-11T00:07:05;-5.10;99.90
8664;DHT22;4369;47.842;13.096;2024-01-11T00:09:33;-5.20;99.90
8664;DHT22;4369;47.842;13.096;2024-01-11T00:12:00;-5.30;99.90
8664;DHT22;4369;47.842;13.096;2024-01-11T00:14:27;-5.30;99.90
8664;DHT22;4369;47.842;13.096;2024-01-11T00:16:54;-5.20;99.90
8664;DHT22;4369;47.842;13.096;2024-01-11T00:19:20;-5.20;99.90
8664;DHT22;4369;47.842;13.096;2024-01-11T00:21:49;-5.10;99.90
8664;DHT22;4369;47.842;13.096;2024-01-11T00:24:16;-5.10;99.90
8664;DHT22;4369;47.842;13.096;2024-01-11T00:26:43;-5.00;99.90
8664;DHT22;4369;47.842;13.096;2024-01-11T00:29:10;-4.90;99.90
8664;DHT22;4369;47.842;13.096;2024-01-11T00:31:37;-4.90;99.90
8664;DHT22;4369;47.842;13.096;2024-01-11T00:34:04;-5.00;99.90
8664;DHT22;4369;47.842;13.096;2024-01-11T00:36:31;-5.00;99.90
8664;DHT22;4369;47.842;13.096;2024-01-11T00:39:00;-4.90;99.90
8664;DHT22;4369;47.842;13.096;2024-01-11T00:41:26;-4.90;99.90
8664;DHT22;4369;47.842;13.096;2024-01-11T00:43:53;-5.00;99.90
8664;DHT22;4369;47.842;13.096;2024-01-11T00:46:20;-4.90;99.90
8664;DHT22;4369;47.842;13.096;2024-01-11T00:48:47;-4.90;99.90
8664;DHT22;4369;47.842;13.096;2024-01-11T00:51:15;-5.00;99.90
8664;DHT22;4369;47.842;13.096;2024-01-11T00:53:42;-5.00;99.90
8664;DHT22;4369;47.842;13.096;2024-01-11T00:56:16;-5.00;99.90
8664;DHT22;4369;47.842;13.096;2024-01-11T00:58:44;-5.00;99.90
8664;DHT22;4369;47.842;13.096;2024-01-11T01:01:11;-4.90;99.90
8664;DHT22;4369;47.842;13.096;2024-01-11T01:03:38;-5.00;99.90
8664;DHT22;4369;47.842;13.096;2024-01-11T01:06:05;-4.90;99.90
8664;DHT22;4369;47.842;13.096;2024-01-11T01:08:32;-4.80;99.90
8664;DHT22;4369;47.842;13.096;2024-01-11T01:10:59;-4.80;99.90
8664;DHT22;4369;47.842;13.096;2024-01-11T01:13:27;-4.80;99.90
8664;DHT22;4369;47.842;13.096;2024-01-11T01:15:55;-5.00;99.90
8664;DHT22;4369;47.842;13.096;2024-01-11T01:18:22;-5.00;99.90
8664;DHT22;4369;47.842;13.096;2024-01-11T01:20:49;-5.00;99.90
8664;DHT22;4369;47.842;13.096;2024-01-11T01:23:15;-5.00;99.90
8664;DHT22;4369;47.842;13.096;2024-01-11T01:25:43;-5.10;99.90
8664;DHT22;4369;47.842;13.096;2024-01-11T01:28:10;-5.10;99.90
8664;DHT22;4369;47.842;13.096;2024-01-11T01:30:39;-5.10;99.90
8664;DHT22;4369;47.842;13.096;2024-01-11T01:33:06;-5.10;99.90
8664;DHT22;4369;47.842;13.096;2024-01-11T01:35:33;-5.00;99.90
8664;DHT22;4369;47.842;13.096;2024-01-11T01:38:00;-5.00;99.90
8664;DHT22;4369;47.842;13.096;2024-01-11T01:40:29;-4.90;99.90
8664;DHT22;4369;47.842;13.096;2024-01-11T01:42:58;-4.80;99.90
8664;DHT22;4369;47.842;13.096;2024-01-11T01:45:25;-4.70;99.90
8664;DHT22;4369;47.842;13.096;2024-01-11T01:47:55;-4.70;99.90
8664;DHT22;4369;47.842;13.096;2024-01-11T01:50:22;-4.80;99.90
8664;DHT22;4369;47.842;13.096;2024-01-11T01:52:49;-5.00;99.90
8664;DHT22;4369;47.842;13.096;2024-01-11T01:55:17;-5.10;99.40
8664;DHT22;4369;47.842;13.096;2024-01-11T01:57:46;-5.00;97.10
8664;DHT22;4369;47.842;13.096;2024-01-11T02:00:14;-5.00;91.60
8664;DHT22;4369;47.842;13.096;2024-01-11T02:02:43;-5.00;80.40
8664;DHT22;4369;47.842;13.096;2024-01-11T02:05:13;-5.00;70.30
8664;DHT22;4369;47.842;13.096;2024-01-11T02:07:40;-4.90;59.30
8664;DHT22;4369;47.842;13.096;2024-01-11T02:10:08;-4.80;47.20
8664;DHT22;4369;47.842;13.096;2024-01-11T02:12:35;-4.80;35.50
8664;DHT22;4369;47.842;13.096;2024-01-11T02:15:03;-4.80;30.00
8664;DHT22;4369;47.842;13.096;2024-01-11T02:17:31;-4.80;28.70
8664;DHT22;4369;47.842;13.096;2024-01-11T02:19:58;-4.70;28.70
8664;DHT22;4369;47.842;13.096;2024-01-11T02:22:29;-4.70;29.60
8664;DHT22;4369;47.842;13.096;2024-01-11T02:24:59;-4.60;28.40
8664;DHT22;4369;47.842;13.096;2024-01-11T02:27:27;-4.50;31.30
8664;DHT22;4369;47.842;13.096;2024-01-11T02:29:54;-4.50;31.60
8664;DHT22;4369;47.842;13.096;2024-01-11T02:32:22;-4.40;29.60
8664;DHT22;4369;47.842;13.096;2024-01-11T02:34:49;-4.50;27.90
8664;DHT22;4369;47.842;13.096;2024-01-11T02:37:16;-4.60;31.90
8664;DHT22;4369;47.842;13.096;2024-01-11T02:39:43;-4.50;41.90
8664;DHT22;4369;47.842;13.096;2024-01-11T02:42:12;-4.50;50.10
8664;DHT22;4369;47.842;13.096;2024-01-11T02:44:39;-4.60;55.30
8664;DHT22;4369;47.842;13.096;2024-01-11T02:47:06;-4.70;58.90
8664;DHT22;4369;47.842;13.096;2024-01-11T02:49:33;-4.70;74.20
8664;DHT22;4369;47.842;13.096;2024-01-11T02:52:00;-4.80;91.10
8664;DHT22;4369;47.842;13.096;2024-01-11T02:54:27;-4.80;99.90
8664;DHT22;4369;47.842;13.096;2024-01-11T02:56:53;-5.00;99.90
8664;DHT22;4369;47.842;13.096;2024-01-11T02:59:24;-5.00;99.90
8664;DHT22;4369;47.842;13.096;2024-01-11T03:01:51;-5.00;99.90
8664;DHT22;4369;47.842;13.096;2024-01-11T03:04:18;-5.00;99.90
8664;DHT22;4369;47.842;13.096;2024-01-11T03:06:45;-5.00;99.90
8664;DHT22;4369;47.842;13.096;2024-01-11T03:09:12;-5.10;99.90
8664;DHT22;4369;47.842;13.096;2024-01-11T03:11:39;-5.30;99.90
8664;DHT22;4369;47.842;13.096;2024-01-11T03:14:06;-5.30;99.90
8664;DHT22;4369;47.842;13.096;2024-01-11T03:16:34;-5.40;99.90
8664;DHT22;4369;47.842;13.096;2024-01-11T03:19:01;-5.50;99.90
8664;DHT22;4369;47.842;13.096;2024-01-11T03:21:28;-5.40;99.90
8664;DHT22;4369;47.842;13.096;2024-01-11T03:23:55;-5.50;99.90
8664;DHT22;4369;47.842;13.096;2024-01-11T03:26:22;-5.60;99.90
8664;DHT22;4369;47.842;13.096;2024-01-11T03:28:49;-5.50;99.90
8664;DHT22;4369;47.842;13.096;2024-01-11T03:31:16;-5.50;99.90
8664;DHT22;4369;47.842;13.096;2024-01-11T03:33:45;-5.60;99.90
8664;DHT22;4369;47.842;13.096;2024-01-11T03:36:12;-5.60;99.90
8664;DHT22;4369;47.842;13.096;2024-01-11T03:38:39;-5.50;99.90
8664;DHT22;4369;47.842;13.096;2024-01-11T03:41:07;-5.50;99.90
8664;DHT22;4369;47.842;13.096;2024-01-11T03:43:35;-5.50;99.90
8664;DHT22;4369;47.842;13.096;2024-01-11T03:46:02;-5.40;99.90
8664;DHT22;4369;47.842;13.096;2024-01-11T03:48:30;-5.40;99.90
8664;DHT22;4369;47.842;13.096;2024-01-11T03:50:59;-5.40;99.90
8664;DHT22;4369;47.842;13.096;2024-01-11T03:53:25;-5.40;99.90
8664;DHT22;4369;47.842;13.096;2024-01-11T03:55:52;-5.60;99.90
8664;DHT22;4369;47.842;13.096;2024-01-11T03:58:19;-5.60;99.90
8664;DHT22;4369;47.842;13.096;2024-01-11T04:00:46;-5.60;99.90
8664;DHT22;4369;47.842;13.096;2024-01-11T04:03:13;-5.80;99.90
8664;DHT22;4369;47.842;13.096;2024-01-11T04:05:40;-5.90;99.90
8664;DHT22;4369;47.842;13.096;2024-01-11T04:08:09;-6.00;99.90
8664;DHT22;4369;47.842;13.096;2024-01-11T04:10:36;-6.10;99.90
8664;DHT22;4369;47.842;13.096;2024-01-11T04:13:03;-6.10;99.90
8664;DHT22;4369;47.842;13.096;2024-01-11T04:15:30;-6.00;99.90
8664;DHT22;4369;47.842;13.096;2024-01-11T04:17:57;-6.10;99.90
8664;DHT22;4369;47.842;13.096;2024-01-11T04:20:24;-6.00;99.90
8664;DHT22;4369;47.842;13.096;2024-01-11T04:22:51;-5.90;99.90
8664;DHT22;4369;47.842;13.096;2024-01-11T04:25:19;-5.80;99.90
8664;DHT22;4369;47.842;13.096;2024-01-11T04:27:46;-5.80;99.90
8664;DHT22;4369;47.842;13.096;2024-01-11T04:30:14;-5.60;99.90
8664;DHT22;4369;47.842;13.096;2024-01-11T04:32:41;-5.50;99.90
8664;DHT22;4369;47.842;13.096;2024-01-11T04:35:08;-5.50;99.90
8664;DHT22;4369;47.842;13.096;2024-01-11T04:37:35;-5.50;99.90
8664;DHT22;4369;47.842;13.096;2024-01-11T04:40:03;-5.70;99.90
8664;DHT22;4369;47.842;13.096;2024-01-11T04:42:32;-5.70;99.90
8664;DHT22;4369;47.842;13.096;2024-01-11T04:44:59;-5.60;99.90
8664;DHT22;4369;47.842;13.096;2024-01-11T04:47:26;-5.50;99.90
8664;DHT22;4369;47.842;13.096;2024-01-11T04:49:53;-5.50;99.90
8664;DHT22;4369;47.842;13.096;2024-01-11T04:52:20;-5.50;99.90
8664;DHT22;4369;47.842;13.096;2024-01-11T04:54:46;-5.30;99.90
8664;DHT22;4369;47.842;13.096;2024-01-11T04:57:13;-5.40;99.90
8664;DHT22;4369;47.842;13.096;2024-01-11T04:59:42;-5.50;99.90
8664;DHT22;4369;47.842;13.096;2024-01-11T05:02:09;-5.60;99.90
8664;DHT22;4369;47.842;13.096;2024-01-11T05:04:36;-5.60;99.90
8664;DHT22;4369;47.842;13.096;2024-01-11T05:07:03;-5.50;99.90
8664;DHT22;4369;47.842;13.096;2024-01-11T05:09:30;-5.30;99.90
8664;DHT22;4369;47.842;13.096;2024-01-11T05:11:57;-5.20;99.90
8664;DHT22;4369;47.842;13.096;2024-01-11T05:14:24;-5.10;99.90
8664;DHT22;4369;47.842;13.096;2024-01-11T05:16:52;-5.20;99.90
8664;DHT22;4369;47.842;13.096;2024-01-11T05:19:19;-5.20;99.90
8664;DHT22;4369;47.842;13.096;2024-01-11T05:21:46;-5.10;99.90
8664;DHT22;4369;47.842;13.096;2024-01-11T05:24:13;-5.10;99.90
8664;DHT22;4369;47.842;13.096;2024-01-11T05:26:40;-5.10;99.90
8664;DHT22;4369;47.842;13.096;2024-01-11T05:29:07;-5.10;99.90
8664;DHT22;4369;47.842;13.096;2024-01-11T05:31:34;-5.10;99.90
8664;DHT22;4369;47.842;13.096;2024-01-11T05:34:03;-5.00;99.90
8664;DHT22;4369;47.842;13.096;2024-01-11T05:36:30;-5.10;99.90
8664;DHT22;4369;47.842;13.096;2024-01-11T05:38:57;-5.00;99.90
8664;DHT22;4369;47.842;13.096;2024-01-11T05:41:24;-5.10;97.70
8664;DHT22;4369;47.842;13.096;2024-01-11T05:43:51;-5.20;84.00
8664;DHT22;4369;47.842;13.096;2024-01-11T05:46:18;-5.20;75.20
8664;DHT22;4369;47.842;13.096;2024-01-11T05:48:45;-5.20;73.10
8664;DHT22;4369;47.842;13.096;2024-01-11T05:51:13;-5.20;72.70
8664;DHT22;4369;47.842;13.096;2024-01-11T05:53:40;-5.30;69.50
8664;DHT22;4369;47.842;13.096;2024-01-11T05:56:08;-5.20;74.20
8664;DHT22;4369;47.842;13.096;2024-01-11T05:58:35;-5.10;82.70
8664;DHT22;4369;47.842;13.096;2024-01-11T06:01:03;-4.90;84.50
8664;DHT22;4369;47.842;13.096;2024-01-11T06:03:30;-4.90;84.30
8664;DHT22;4369;47.842;13.096;2024-01-11T06:06:00;-4.80;88.80
8664;DHT22;4369;47.842;13.096;2024-01-11T06:08:29;-4.70;92.30
8664;DHT22;4369;47.842;13.096;2024-01-11T06:10:57;-4.70;93.80
8664;DHT22;4369;47.842;13.096;2024-01-11T06:13:24;-4.70;97.30
8664;DHT22;4369;47.842;13.096;2024-01-11T06:15:51;-4.80;99.90
8664;DHT22;4369;47.842;13.096;2024-01-11T06:18:18;-4.70;99.90
8664;DHT22;4369;47.842;13.096;2024-01-11T06:20:45;-4.70;99.90
8664;DHT22;4369;47.842;13.096;2024-01-11T06:23:12;-4.50;99.90
8664;DHT22;4369;47.842;13.096;2024-01-11T06:25:40;-4.50;99.90
8664;DHT22;4369;47.842;13.096;2024-01-11T06:28:07;-4.40;99.90
8664;DHT22;4369;47.842;13.096;2024-01-11T06:30:35;-4.30;99.90
8664;DHT22;4369;47.842;13.096;2024-01-11T06:33:03;-4.40;99.90
8664;DHT22;4369;47.842;13.096;2024-01-11T06:35:30;-4.40;99.90
8664;DHT22;4369;47.842;13.096;2024-01-11T06:37:57;-4.40;99.90
8664;DHT22;4369;47.842;13.096;2024-01-11T06:40:24;-4.40;99.90
8664;DHT22;4369;47.842;13.096;2024-01-11T06:42:52;-4.40;99.90
8664;DHT22;4369;47.842;13.096;2024-01-11T06:45:20;-4.30;99.90
8664;DHT22;4369;47.842;13.096;2024-01-11T06:47:47;-4.30;99.90
8664;DHT22;4369;47.842;13.096;2024-01-11T06:50:14;-4.30;99.90
8664;DHT22;4369;47.842;13.096;2024-01-11T06:52:41;-4.40;99.90
8664;DHT22;4369;47.842;13.096;2024-01-11T06:55:09;-4.50;99.90
8664;DHT22;4369;47.842;13.096;2024-01-11T06:57:36;-4.50;99.90
8664;DHT22;4369;47.842;13.096;2024-01-11T07:00:06;-4.60;99.90
8664;DHT22;4369;47.842;13.096;2024-01-11T07:02:34;-4.60;99.90
8664;DHT22;4369;47.842;13.096;2024-01-11T07:05:01;-4.70;99.90
8664;DHT22;4369;47.842;13.096;2024-01-11T07:07:28;-4.60;99.90
8664;DHT22;4369;47.842;13.096;2024-01-11T07:09:54;-4.70;99.90
8664;DHT22;4369;47.842;13.096;2024-01-11T07:12:21;-4.80;99.90
8664;DHT22;4369;47.842;13.096;2024-01-11T07:14:48;-4.80;99.90
8664;DHT22;4369;47.842;13.096;2024-01-11T07:17:16;-4.80;99.90
8664;DHT22;4369;47.842;13.096;2024-01-11T07:19:43;-4.70;99.90
8664;DHT22;4369;47.842;13.096;2024-01-11T07:22:10;-4.70;99.90
8664;DHT22;4369;47.842;13.096;2024-01-11T07:24:37;-4.70;99.90
8664;DHT22;4369;47.842;13.096;2024-01-11T07:27:04;-4.60;99.90
8664;DHT22;4369;47.842;13.096;2024-01-11T07:29:31;-4.60;99.90
8664;DHT22;4369;47.842;13.096;2024-01-11T07:31:58;-4.50;99.90
8664;DHT22;4369;47.842;13.096;2024-01-11T07:34:27;-4.60;99.90
8664;DHT22;4369;47.842;13.096;2024-01-11T07:36:54;-4.80;99.90
8664;DHT22;4369;47.842;13.096;2024-01-11T07:39:22;-5.00;99.90
8664;DHT22;4369;47.842;13.096;2024-01-11T07:41:50;-5.00;99.90
8664;DHT22;4369;47.842;13.096;2024-01-11T07:44:17;-5.20;99.90
8664;DHT22;4369;47.842;13.096;2024-01-11T07:46:44;-5.00;99.90
8664;DHT22;4369;47.842;13.096;2024-01-11T07:49:11;-5.00;99.90
8664;DHT22;4369;47.842;13.096;2024-01-11T07:51:38;-5.10;99.90
8664;DHT22;4369;47.842;13.096;2024-01-11T07:54:05;-5.20;99.90
8664;DHT22;4369;47.842;13.096;2024-01-11T07:56:32;-5.10;99.90
8664;DHT22;4369;47.842;13.096;2024-01-11T07:59:00;-4.90;99.90
8664;DHT22;4369;47.842;13.096;2024-01-11T08:01:27;-4.90;99.90
8664;DHT22;4369;47.842;13.096;2024-01-11T08:03:54;-4.70;99.90
8664;DHT22;4369;47.842;13.096;2024-01-11T08:06:21;-4.90;99.90
8664;DHT22;4369;47.842;13.096;2024-01-11T08:08:49;-4.80;99.90
8664;DHT22;4369;47.842;13.096;2024-01-11T08:11:17;-4.80;99.90
8664;DHT22;4369;47.842;13.096;2024-01-11T08:13:45;-4.80;99.90
8664;DHT22;4369;47.842;13.096;2024-01-11T08:16:15;-5.00;99.90
8664;DHT22;4369;47.842;13.096;2024-01-11T08:18:43;-4.90;99.90
8664;DHT22;4369;47.842;13.096;2024-01-11T08:21:11;-4.90;99.90
8664;DHT22;4369;47.842;13.096;2024-01-11T08:23:39;-4.70;99.90
8664;DHT22;4369;47.842;13.096;2024-01-11T08:26:11;-4.50;99.90
8664;DHT22;4369;47.842;13.096;2024-01-11T08:28:38;-4.40;99.90
8664;DHT22;4369;47.842;13.096;2024-01-11T08:31:05;-4.20;99.90
8664;DHT22;4369;47.842;13.096;2024-01-11T08:33:32;-4.10;99.90
8664;DHT22;4369;47.842;13.096;2024-01-11T08:36:00;-4.00;99.90
8664;DHT22;4369;47.842;13.096;2024-01-11T08:38:29;-4.10;99.90
8664;DHT22;4369;47.842;13.096;2024-01-11T08:40:56;-4.00;99.90
8664;DHT22;4369;47.842;13.096;2024-01-11T08:43:25;-3.80;99.90
8664;DHT22;4369;47.842;13.096;2024-01-11T08:45:52;-3.60;99.90
8664;DHT22;4369;47.842;13.096;2024-01-11T08:48:19;-3.40;99.90
8664;DHT22;4369;47.842;13.096;2024-01-11T08:50:46;-3.50;99.90
8664;DHT22;4369;47.842;13.096;2024-01-11T08:53:13;-3.50;99.90
8664;DHT22;4369;47.842;13.096;2024-01-11T08:55:41;-3.60;99.90
8664;DHT22;4369;47.842;13.096;2024-01-11T08:58:08;-3.50;99.90
8664;DHT22;4369;47.842;13.096;2024-01-11T09:00:37;-3.30;99.90
8664;DHT22;4369;47.842;13.096;2024-01-11T09:03:04;-3.30;99.90
8664;DHT22;4369;47.842;13.096;2024-01-11T09:05:31;-3.50;99.90
8664;DHT22;4369;47.842;13.096;2024-01-11T09:07:58;-3.40;99.90
8664;DHT22;4369;47.842;13.096;2024-01-11T09:10:25;-3.30;99.90
8664;DHT22;4369;47.842;13.096;2024-01-11T09:12:53;-3.40;99.90
8664;DHT22;4369;47.842;13.096;2024-01-11T09:15:20;-3.30;99.90
8664;DHT22;4369;47.842;13.096;2024-01-11T09:17:49;-3.20;99.90
8664;DHT22;4369;47.842;13.096;2024-01-11T09:20:16;-3.10;99.90
8664;DHT22;4369;47.842;13.096;2024-01-11T09:22:44;-3.00;99.90
8664;DHT22;4369;47.842;13.096;2024-01-11T09:25:12;-2.80;99.90
8664;DHT22;4369;47.842;13.096;2024-01-11T09:27:39;-2.70;99.90
8664;DHT22;4369;47.842;13.096;2024-01-11T09:30:07;-2.60;99.90
8664;DHT22;4369;47.842;13.096;2024-01-11T09:32:35;-2.30;99.90
8664;DHT22;4369;47.842;13.096;2024-01-11T09:35:04;-2.20;99.90
8664;DHT22;4369;47.842;13.096;2024-01-11T09:37:31;-2.20;98.50
8664;DHT22;4369;47.842;13.096;2024-01-11T09:39:58;-2.10;95.30
8664;DHT22;4369;47.842;13.096;2024-01-11T09:42:26;-2.10;81.40
8664;DHT22;4369;47.842;13.096;2024-01-11T09:44:54;-2.00;65.10
8664;DHT22;4369;47.842;13.096;2024-01-11T09:47:24;-1.90;61.30
8664;DHT22;4369;47.842;13.096;2024-01-11T09:49:53;-2.00;44.60
8664;DHT22;4369;47.842;13.096;2024-01-11T09:52:22;-2.10;37.70
8664;DHT22;4369;47.842;13.096;2024-01-11T09:54:52;-2.10;36.60
8664;DHT22;4369;47.842;13.096;2024-01-11T09:57:24;-2.00;41.00
8664;DHT22;4369;47.842;13.096;2024-01-11T09:59:54;-1.80;44.00
8664;DHT22;4369;47.842;13.096;2024-01-11T10:02:23;-1.70;37.80
8664;DHT22;4369;47.842;13.096;2024-01-11T10:04:50;-1.70;22.70
8664;DHT22;4369;47.842;13.096;2024-01-11T10:07:18;-1.40;32.50
8664;DHT22;4369;47.842;13.096;2024-01-11T10:09:48;-1.30;18.30
8664;DHT22;4369;47.842;13.096;2024-01-11T10:12:15;-1.10;5.50
8664;DHT22;4369;47.842;13.096;2024-01-11T10:14:42;-1.20;1.00
8664;DHT22;4369;47.842;13.096;2024-01-11T10:17:10;-1.40;1.00
8664;DHT22;4369;47.842;13.096;2024-01-11T10:19:37;-1.40;1.00
8664;DHT22;4369;47.842;13.096;2024-01-11T10:22:04;-1.60;1.00
8664;DHT22;4369;47.842;13.096;2024-01-11T10:24:32;-1.60;1.00
8664;DHT22;4369;47.842;13.096;2024-01-11T10:27:02;-1.70;1.00
8664;DHT22;4369;47.842;13.096;2024-01-11T10:29:30;-1.70;1.00
8664;DHT22;4369;47.842;13.096;2024-01-11T10:31:57;-2.00;1.00
8664;DHT22;4369;47.842;13.096;2024-01-11T10:34:24;-2.30;1.00
8664;DHT22;4369;47.842;13.096;2024-01-11T10:36:51;-2.60;1.00
8664;DHT22;4369;47.842;13.096;2024-01-11T10:39:23;-2.70;10.80
8664;DHT22;4369;47.842;13.096;2024-01-11T10:42:02;-2.70;29.70
8664;DHT22;4369;47.842;13.096;2024-01-11T10:44:34;-2.70;46.90
8664;DHT22;4369;47.842;13.096;2024-01-11T10:47:05;-2.50;48.30
8664;DHT22;4369;47.842;13.096;2024-01-11T10:49:33;-2.20;49.90
8664;DHT22;4369;47.842;13.096;2024-01-11T10:52:04;-2.00;35.10
8664;DHT22;4369;47.842;13.096;2024-01-11T10:54:33;-2.30;12.60
8664;DHT22;4369;47.842;13.096;2024-01-11T10:57:01;-2.30;24.30
8664;DHT22;4369;47.842;13.096;2024-01-11T10:59:32;-2.10;27.50
8664;DHT22;4369;47.842;13.096;2024-01-11T11:02:04;-2.10;16.70
8664;DHT22;4369;47.842;13.096;2024-01-11T11:04:36;-2.10;14.30
8664;DHT22;4369;47.842;13.096;2024-01-11T11:07:05;-2.10;9.80
8664;DHT22;4369;47.842;13.096;2024-01-11T11:09:34;-2.20;1.00
8664;DHT22;4369;47.842;13.096;2024-01-11T11:12:01;-2.10;11.40
8664;DHT22;4369;47.842;13.096;2024-01-11T11:14:31;-1.90;29.90
8664;DHT22;4369;47.842;13.096;2024-01-11T11:16:58;-1.70;32.20
8664;DHT22;4369;47.842;13.096;2024-01-11T11:19:25;-1.60;33.80
8664;DHT22;4369;47.842;13.096;2024-01-11T11:21:53;-1.30;25.70
8664;DHT22;4369;47.842;13.096;2024-01-11T11:24:20;-1.30;15.40
8664;DHT22;4369;47.842;13.096;2024-01-11T11:26:47;-1.20;11.90
8664;DHT22;4369;47.842;13.096;2024-01-11T11:29:15;-1.20;3.00
8664;DHT22;4369;47.842;13.096;2024-01-11T11:31:44;-1.20;1.00
8664;DHT22;4369;47.842;13.096;2024-01-11T11:34:13;-1.00;1.00
8664;DHT22;4369;47.842;13.096;2024-01-11T11:36:41;-0.90;1.00
8664;DHT22;4369;47.842;13.096;2024-01-11T11:39:10;-1.10;1.00
8664;DHT22;4369;47.842;13.096;2024-01-11T11:41:38;-1.40;1.00
8664;DHT22;4369;47.842;13.096;2024-01-11T11:44:06;-1.40;1.00
8664;DHT22;4369;47.842;13.096;2024-01-11T11:46:33;-1.50;1.00
8664;DHT22;4369;47.842;13.096;2024-01-11T11:49:02;-1.50;1.00
8664;DHT22;4369;47.842;13.096;2024-01-11T11:51:29;-1.60;1.00
8664;DHT22;4369;47.842;13.096;2024-01-11T11:53:56;-1.70;1.00
8664;DHT22;4369;47.842;13.096;2024-01-11T11:56:24;-1.60;20.70
8664;DHT22;4369;47.842;13.096;2024-01-11T11:58:52;-1.60;8.60
8664;DHT22;4369;47.842;13.096;2024-01-11T12:01:20;-1.50;15.30
8664;DHT22;4369;47.842;13.096;2024-01-11T12:03:46;-1.50;4.90
8664;DHT22;4369;47.842;13.096;2024-01-11T12:06:17;-1.60;4.80
8664;DHT22;4369;47.842;13.096;2024-01-11T12:08:46;-1.70;1.00
8664;DHT22;4369;47.842;13.096;2024-01-11T12:11:13;-1.60;10.80
8664;DHT22;4369;47.842;13.096;2024-01-11T12:13:41;-1.80;4.50
8664;DHT22;4369;47.842;13.096;2024-01-11T12:16:10;-1.70;13.00
8664;DHT22;4369;47.842;13.096;2024-01-11T12:18:37;-1.50;8.80
8664;DHT22;4369;47.842;13.096;2024-01-11T12:21:04;-1.60;3.50
8664;DHT22;4369;47.842;13.096;2024-01-11T12:23:33;-1.40;12.10
8664;DHT22;4369;47.842;13.096;2024-01-11T12:26:01;-1.40;2.50
8664;DHT22;4369;47.842;13.096;2024-01-11T12:28:31;-1.40;3.40
8664;DHT22;4369;47.842;13.096;2024-01-11T12:30:58;-2.10;1.00
8664;DHT22;4369;47.842;13.096;2024-01-11T12:33:26;-2.40;41.10
8664;DHT22;4369;47.842;13.096;2024-01-11T12:35:53;-2.40;72.10
8664;DHT22;4369;47.842;13.096;2024-01-11T12:38:20;-2.70;91.20
8664;DHT22;4369;47.842;13.096;2024-01-11T12:40:49;-2.50;99.50
8664;DHT22;4369;47.842;13.096;2024-01-11T12:43:16;-2.50;99.80
8664;DHT22;4369;47.842;13.096;2024-01-11T12:45:43;-2.40;99.90
8664;DHT22;4369;47.842;13.096;2024-01-11T12:48:10;-2.40;99.90
8664;DHT22;4369;47.842;13.096;2024-01-11T12:50:39;-2.30;99.90
8664;DHT22;4369;47.842;13.096;2024-01-11T12:53:08;-2.20;99.90
8664;DHT22;4369;47.842;13.096;2024-01-11T12:55:37;-2.00;99.90
8664;DHT22;4369;47.842;13.096;2024-01-11T12:58:07;-2.10;92.90
8664;DHT22;4369;47.842;13.096;2024-01-11T13:00:35;-2.00;93.90
8664;DHT22;4369;47.842;13.096;2024-01-11T13:03:04;-2.10;90.00
8664;DHT22;4369;47.842;13.096;2024-01-11T13:05:31;-2.10;92.90
8664;DHT22;4369;47.842;13.096;2024-01-11T13:08:01;-2.10;93.40
8664;DHT22;4369;47.842;13.096;2024-01-11T13:10:29;-2.10;93.00
8664;DHT22;4369;47.842;13.096;2024-01-11T13:12:58;-2.20;93.90
8664;DHT22;4369;47.842;13.096;2024-01-11T13:15:28;-2.20;98.30
8664;DHT22;4369;47.842;13.096;2024-01-11T13:17:57;-2.40;99.90
8664;DHT22;4369;47.842;13.096;2024-01-11T13:20:24;-2.20;99.90
8664;DHT22;4369;47.842;13.096;2024-01-11T13:23:11;-2.10;99.90
8664;DHT22;4369;47.842;13.096;2024-01-11T13:25:39;-2.00;99.90
8664;DHT22;4369;47.842;13.096;2024-01-11T13:28:06;-2.10;99.90
8664;DHT22;4369;47.842;13.096;2024-01-11T13:30:35;-2.10;99.90
8664;DHT22;4369;47.842;13.096;2024-01-11T13:33:03;-2.10;99.90
8664;DHT22;4369;47.842;13.096;2024-01-11T13:35:30;-2.30;99.90
8664;DHT22;4369;47.842;13.096;2024-01-11T13:37:57;-2.30;99.90
8664;DHT22;4369;47.842;13.096;2024-01-11T13:40:24;-2.20;99.90
8664;DHT22;4369;47.842;13.096;2024-01-11T13:42:51;-2.20;99.90
8664;DHT22;4369;47.842;13.096;2024-01-11T13:45:18;-2.10;99.90
8664;DHT22;4369;47.842;13.096;2024-01-11T13:47:46;-2.00;99.90
8664;DHT22;4369;47.842;13.096;2024-01-11T13:50:13;-2.00;99.90
8664;DHT22;4369;47.842;13.096;2024-01-11T13:52:40;-1.90;99.90
8664;DHT22;4369;47.842;13.096;2024-01-11T13:55:08;-2.00;99.90
8664;DHT22;4369;47.842;13.096;2024-01-11T13:57:36;-2.00;99.90
8664;DHT22;4369;47.842;13.096;2024-01-11T14:00:04;-1.90;99.90
8664;DHT22;4369;47.842;13.096;2024-01-11T14:02:32;-2.00;99.90
8664;DHT22;4369;47.842;13.096;2024-01-11T14:05:01;-2.10;99.90
8664;DHT22;4369;47.842;13.096;2024-01-11T14:07:29;-2.00;99.90
8664;DHT22;4369;47.842;13.096;2024-01-11T14:09:56;-2.00;99.90
8664;DHT22;4369;47.842;13.096;2024-01-11T14:12:23;-2.00;99.90
8664;DHT22;4369;47.842;13.096;2024-01-11T14:14:50;-2.00;99.90
8664;DHT22;4369;47.842;13.096;2024-01-11T14:17:17;-2.00;99.90
8664;DHT22;4369;47.842;13.096;2024-01-11T14:19:44;-2.00;99.70
8664;DHT22;4369;47.842;13.096;2024-01-11T14:22:12;-1.90;99.90
8664;DHT22;4369;47.842;13.096;2024-01-11T14:24:39;-1.90;99.90
8664;DHT22;4369;47.842;13.096;2024-01-11T14:27:06;-1.80;99.90
8664;DHT22;4369;47.842;13.096;2024-01-11T14:29:35;-1.90;97.90
8664;DHT22;4369;47.842;13.096;2024-01-11T14:32:02;-1.90;99.60
8664;DHT22;4369;47.842;13.096;2024-01-11T14:34:29;-2.00;99.90
8664;DHT22;4369;47.842;13.096;2024-01-11T14:36:56;-2.00;99.30
8664;DHT22;4369;47.842;13.096;2024-01-11T14:39:24;-2.00;98.80
8664;DHT22;4369;47.842;13.096;2024-01-11T14:41:51;-2.00;97.10
8664;DHT22;4369;47.842;13.096;2024-01-11T14:44:18;-2.10;99.60
8664;DHT22;4369;47.842;13.096;2024-01-11T14:46:45;-2.10;99.20
8664;DHT22;4369;47.842;13.096;2024-01-11T14:49:12;-1.90;99.90
8664;DHT22;4369;47.842;13.096;2024-01-11T14:51:39;-1.90;99.00
8664;DHT22;4369;47.842;13.096;2024-01-11T14:54:07;-2.30;91.00
8664;DHT22;4369;47.842;13.096;2024-01-11T14:56:35;-2.60;99.90
8664;DHT22;4369;47.842;13.096;2024-01-11T14:59:02;-2.60;99.90
8664;DHT22;4369;47.842;13.096;2024-01-11T15:01:30;-2.50;99.90
8664;DHT22;4369;47.842;13.096;2024-01-11T15:03:58;-2.50;99.90
8664;DHT22;4369;47.842;13.096;2024-01-11T15:06:24;-2.40;99.90
8664;DHT22;4369;47.842;13.096;2024-01-11T15:08:51;-2.50;99.90
8664;DHT22;4369;47.842;13.096;2024-01-11T15:11:18;-2.50;99.90
8664;DHT22;4369;47.842;13.096;2024-01-11T15:13:47;-2.80;99.90
8664;DHT22;4369;47.842;13.096;2024-01-11T15:16:14;-2.80;99.90
8664;DHT22;4369;47.842;13.096;2024-01-11T15:18:40;-2.90;99.90
8664;DHT22;4369;47.842;13.096;2024-01-11T15:21:07;-3.00;99.90
8664;DHT22;4369;47.842;13.096;2024-01-11T15:23:34;-3.10;99.90
8664;DHT22;4369;47.842;13.096;2024-01-11T15:26:01;-3.20;99.90
8664;DHT22;4369;47.842;13.096;2024-01-11T15:28:28;-3.40;99.90
8664;DHT22;4369;47.842;13.096;2024-01-11T15:30:57;-3.40;99.90
8664;DHT22;4369;47.842;13.096;2024-01-11T15:33:23;-3.40;99.90
8664;DHT22;4369;47.842;13.096;2024-01-11T15:35:50;-3.40;99.90
8664;DHT22;4369;47.842;13.096;2024-01-11T15:38:17;-3.50;99.90
8664;DHT22;4369;47.842;13.096;2024-01-11T15:40:44;-3.50;99.90
8664;DHT22;4369;47.842;13.096;2024-01-11T15:43:11;-3.50;99.90
8664;DHT22;4369;47.842;13.096;2024-01-11T15:45:38;-3.50;99.90
8664;DHT22;4369;47.842;13.096;2024-01-11T15:48:07;-3.40;99.90
8664;DHT22;4369;47.842;13.096;2024-01-11T15:50:34;-3.40;99.90